Time;durP1;ratioP1;P1;durP2;ratioP2;P2;SDS_P1;SDS_P2;PMS_P1;PMS_P2;Temp;Humidity;BMP_temperature;BMP_pressure;BME280_temperature;BME280_humidity;BME280_pressure;Samples;Min_cycle;Max_cycle;Signal;HPM_P1;HPM_P2
2023/06/04 00:01:06;;;;;;;14.93;9.65;;;13.00;99.90;;;;;;7598349;19;20022;-73
2023/06/04 00:03:47;;;;;;;15.05;9.55;;;13.10;99.90;;;;;;7593351;19;20029;-74
2023/06/04 00:06:20;;;;;;;15.05;9.27;;;13.10;99.90;;;;;;7595676;19;20026;-73
2023/06/04 00:08:52;;;;;;;15.98;9.80;;;13.10;99.90;;;;;;7594893;19;20029;-73
2023/06/04 00:11:26;;;;;;;12.27;8.75;;;13.00;99.90;;;;;;7594470;19;20142;-74
2023/06/04 00:13:58;;;;;;;18.23;9.77;;;13.00;99.90;;;;;;7596025;19;20019;-74
2023/06/04 00:16:30;;;;;;;15.32;9.45;;;13.00;99.90;;;;;;7592592;19;20021;-74
2023/06/04 00:19:03;;;;;;;13.40;9.13;;;12.90;99.90;;;;;;7596433;19;20032;-74
2023/06/04 00:21:35;;;;;;;14.38;9.05;;;12.90;99.90;;;;;;7591871;19;21226;-73
2023/06/04 00:24:07;;;;;;;15.27;9.10;;;12.80;99.90;;;;;;7592935;19;20094;-74
2023/06/04 00:26:40;;;;;;;18.95;9.32;;;12.80;99.90;;;;;;7591460;19;20019;-74
2023/06/04 00:29:12;;;;;;;12.52;9.23;;;12.80;99.90;;;;;;7599240;19;20014;-74
2023/06/04 00:31:44;;;;;;;13.43;8.85;;;12.70;99.90;;;;;;7591377;19;20006;-73
2023/06/04 00:34:18;;;;;;;16.70;8.75;;;12.70;99.90;;;;;;7592909;19;20225;-74
2023/06/04 00:36:50;;;;;;;13.88;7.75;;;12.70;99.90;;;;;;7591391;19;20018;-74
2023/06/04 00:39:22;;;;;;;14.88;8.68;;;12.70;99.90;;;;;;7592940;19;20029;-73
2023/06/04 00:41:55;;;;;;;11.00;7.00;;;12.80;99.90;;;;;;7595404;19;20014;-74
2023/06/04 00:44:28;;;;;;;13.88;7.82;;;12.80;99.90;;;;;;7592245;19;20131;-74
2023/06/04 00:47:00;;;;;;;15.15;8.18;;;12.80;99.90;;;;;;7594837;19;20029;-75
2023/06/04 00:49:33;;;;;;;12.27;7.70;;;12.80;99.90;;;;;;7589186;19;20056;-73
2023/06/04 00:52:05;;;;;;;12.75;7.85;;;12.70;99.90;;;;;;7590691;19;21119;-74
2023/06/04 00:54:37;;;;;;;11.25;7.50;;;12.70;99.90;;;;;;7593933;19;20051;-74
2023/06/04 00:57:10;;;;;;;13.77;7.15;;;12.70;99.90;;;;;;7593578;19;20026;-74
2023/06/04 00:59:42;;;;;;;9.93;6.75;;;12.70;99.90;;;;;;7590671;19;20846;-74
2023/06/04 01:02:22;;;;;;;11.70;7.00;;;12.70;99.90;;;;;;7591845;19;20018;-74
2023/06/04 01:05:03;;;;;;;10.50;7.20;;;12.70;99.90;;;;;;7587431;19;20025;-73
2023/06/04 01:07:36;;;;;;;11.05;7.35;;;12.70;99.90;;;;;;7592102;19;20547;-73
2023/06/04 01:10:08;;;;;;;;;;;12.60;99.90;;;;;;7591410;19;20036;-74
2023/06/04 01:12:44;;;;;;;9.43;6.60;;;12.60;99.90;;;;;;7587261;19;21467;-74
2023/06/04 01:15:18;;;;;;;10.90;7.25;;;12.60;99.90;;;;;;7592485;19;20035;-73
2023/06/04 01:17:57;;;;;;;11.68;6.90;;;12.50;99.90;;;;;;7580489;19;20370;-75
2023/06/04 01:20:44;;;;;;;11.10;6.43;;;12.50;99.90;;;;;;7593457;19;20018;-73
2023/06/04 01:23:34;;;;;;;11.23;6.13;;;12.40;99.90;;;;;;7587732;19;20101;-73
2023/06/04 01:26:06;;;;;;;9.63;6.13;;;12.30;99.90;;;;;;7593717;19;20670;-74
2023/06/04 01:28:40;;;;;;;9.45;6.57;;;12.20;99.90;;;;;;7592470;19;20070;-73
2023/06/04 01:31:13;;;;;;;10.70;6.97;;;12.20;99.90;;;;;;7589128;19;20109;-73
2023/06/04 01:33:46;;;;;;;9.85;6.75;;;12.10;99.90;;;;;;7582852;19;20533;-73
2023/06/04 01:36:19;;;;;;;10.52;6.90;;;12.10;99.90;;;;;;7589400;19;20017;-74
2023/06/04 01:38:51;;;;;;;10.77;6.30;;;11.90;99.90;;;;;;7588483;19;20061;-73
2023/06/04 01:41:23;;;;;;;12.73;6.65;;;11.90;99.90;;;;;;7590063;19;20022;-73
2023/06/04 01:43:55;;;;;;;8.45;5.68;;;11.90;99.90;;;;;;7589364;19;20026;-73
2023/06/04 01:46:28;;;;;;;9.27;6.47;;;11.90;99.90;;;;;;7590414;19;20092;-74
2023/06/04 01:49:00;;;;;;;11.63;5.95;;;11.80;99.90;;;;;;7592197;19;20018;-74
2023/06/04 01:51:33;;;;;;;12.63;6.82;;;11.80;99.90;;;;;;7588141;19;20048;-73
2023/06/04 01:54:05;;;;;;;11.00;5.93;;;11.80;99.90;;;;;;7591405;19;20023;-73
2023/06/04 01:56:37;;;;;;;11.45;5.43;;;11.70;99.90;;;;;;7589441;19;20977;-74
2023/06/04 01:59:11;;;;;;;10.50;6.30;;;11.70;99.90;;;;;;7588263;19;20014;-73
2023/06/04 02:01:43;;;;;;;10.88;6.30;;;11.60;99.90;;;;;;7587384;19;20692;-73
2023/06/04 02:04:16;;;;;;;9.90;6.30;;;11.60;99.90;;;;;;7589398;19;20048;-74
2023/06/04 02:06:50;;;;;;;13.18;6.35;;;11.50;99.90;;;;;;7589531;19;20026;-73
2023/06/04 02:09:22;;;;;;;;;;;11.50;99.90;;;;;;7587793;19;20022;-73
2023/06/04 02:11:54;;;;;;;7.97;5.75;;;11.40;99.90;;;;;;7588553;19;19914;-73
2023/06/04 02:14:27;;;;;;;8.68;5.78;;;11.40;99.90;;;;;;7588395;19;20785;-73
2023/06/04 02:17:00;;;;;;;9.93;6.38;;;11.20;99.90;;;;;;7586976;19;20049;-73
2023/06/04 02:19:33;;;;;;;13.70;6.38;;;11.10;99.90;;;;;;7591066;19;20022;-74
2023/06/04 02:22:06;;;;;;;9.68;6.07;;;11.10;99.90;;;;;;7592119;19;20010;-73
2023/06/04 02:24:42;;;;;;;8.88;5.70;;;11.10;99.90;;;;;;7585246;19;20812;-73
2023/06/04 02:27:14;;;;;;;8.23;5.53;;;11.10;99.90;;;;;;7592818;19;20011;-74
2023/06/04 02:29:46;;;;;;;10.38;6.28;;;11.20;99.90;;;;;;7587607;19;20684;-73
2023/06/04 02:32:19;;;;;;;8.25;5.75;;;11.00;99.90;;;;;;7588343;19;20050;-74
2023/06/04 02:34:52;;;;;;;8.90;6.00;;;11.00;99.90;;;;;;7587655;19;20010;-74
2023/06/04 02:37:25;;;;;;;8.68;5.68;;;11.00;99.90;;;;;;7592805;19;20535;-73
2023/06/04 02:39:57;;;;;;;9.57;6.30;;;11.10;99.90;;;;;;7586645;19;20026;-73
2023/06/04 02:42:29;;;;;;;9.35;6.28;;;11.00;99.90;;;;;;7589764;19;20026;-74
2023/06/04 02:45:01;;;;;;;12.43;5.75;;;10.90;99.90;;;;;;7582498;19;21709;-75
2023/06/04 02:47:34;;;;;;;9.43;5.82;;;11.00;99.90;;;;;;7589735;19;20485;-73
2023/06/04 02:50:07;;;;;;;8.55;5.88;;;11.00;99.90;;;;;;7589750;19;20673;-74
2023/06/04 02:52:40;;;;;;;10.13;6.32;;;10.90;99.90;;;;;;7583577;19;20025;-74
2023/06/04 02:55:15;;;;;;;10.60;6.50;;;10.90;99.90;;;;;;7587943;19;20792;-74
2023/06/04 02:57:47;;;;;;;9.43;6.03;;;10.90;99.90;;;;;;7586334;19;20597;-73
2023/06/04 03:00:20;;;;;;;9.73;5.88;;;10.80;99.90;;;;;;7593504;19;20026;-75
2023/06/04 03:02:52;;;;;;;8.75;6.03;;;10.70;99.90;;;;;;7586850;19;20064;-74
2023/06/04 03:05:26;;;;;;;9.27;5.93;;;10.60;99.90;;;;;;7588770;19;20015;-74
2023/06/04 03:08:00;;;;;;;9.32;6.38;;;10.60;99.90;;;;;;7584501;19;20018;-74
2023/06/04 03:10:32;;;;;;;12.15;5.95;;;10.70;99.90;;;;;;7590768;19;20014;-74
2023/06/04 03:13:05;;;;;;;7.82;5.22;;;10.60;99.90;;;;;;7588062;19;20022;-74
2023/06/04 03:15:38;;;;;;;12.82;6.30;;;10.50;99.90;;;;;;7589268;19;20274;-73
2023/06/04 03:18:11;;;;;;;10.98;6.53;;;10.50;99.90;;;;;;7591194;19;20683;-74
2023/06/04 03:20:43;;;;;;;11.63;6.45;;;10.40;99.90;;;;;;7589992;19;20053;-73
2023/06/04 03:23:16;;;;;;;11.38;5.90;;;10.50;99.90;;;;;;7587789;19;20031;-73
2023/06/04 03:25:49;;;;;;;;;;;10.50;99.90;;;;;;7589614;19;20053;-73
2023/06/04 03:28:21;;;;;;;10.57;6.03;;;10.50;99.90;;;;;;7589875;19;19922;-73
2023/06/04 03:30:54;;;;;;;8.45;5.90;;;10.50;99.90;;;;;;7585977;19;20018;-73
2023/06/04 03:33:28;;;;;;;10.80;6.22;;;10.50;99.90;;;;;;7587029;19;20044;-74
2023/06/04 03:36:00;;;;;;;11.23;6.05;;;10.50;99.90;;;;;;7589357;19;20010;-74
2023/06/04 03:38:33;;;;;;;9.65;6.03;;;10.60;99.90;;;;;;7589163;19;20082;-73
2023/06/04 03:41:05;;;;;;;10.60;5.50;;;10.50;99.90;;;;;;7583598;19;20026;-73
2023/06/04 03:43:38;;;;;;;10.05;6.45;;;10.50;99.90;;;;;;7587101;19;20520;-74
2023/06/04 03:46:13;;;;;;;11.60;6.53;;;10.50;99.90;;;;;;7587407;19;20018;-73
2023/06/04 03:48:46;;;;;;;10.07;6.43;;;10.40;99.90;;;;;;7586096;19;20107;-73
2023/06/04 03:51:18;;;;;;;9.40;6.17;;;10.50;99.90;;;;;;7585191;19;20025;-73
2023/06/04 03:53:51;;;;;;;10.98;6.93;;;10.50;99.90;;;;;;7583227;19;20022;-73
2023/06/04 03:56:24;;;;;;;9.73;6.18;;;10.50;99.90;;;;;;7594985;19;20011;-73
2023/06/04 03:58:56;;;;;;;9.38;6.65;;;10.60;99.90;;;;;;7590280;19;20018;-74
2023/06/04 04:01:28;;;;;;;8.93;6.15;;;10.60;99.90;;;;;;7594434;19;20905;-74
2023/06/04 04:04:01;;;;;;;8.50;5.78;;;10.50;99.90;;;;;;7591364;19;20611;-73
2023/06/04 04:06:35;;;;;;;10.75;6.43;;;10.60;99.90;;;;;;7598739;19;20022;-74
2023/06/04 04:09:07;;;;;;;;;;;10.60;99.90;;;;;;7596471;19;20011;-74
2023/06/04 04:11:41;;;;;;;14.10;7.15;;;10.60;99.90;;;;;;7591198;19;19978;-74
2023/06/04 04:14:13;;;;;;;10.27;6.47;;;10.60;99.90;;;;;;7594440;19;20676;-73
2023/06/04 04:16:46;;;;;;;12.43;7.72;;;10.60;99.90;;;;;;7593004;19;20058;-73
2023/06/04 04:19:20;;;;;;;11.63;6.90;;;10.60;99.90;;;;;;7597357;19;20019;-74
2023/06/04 04:21:52;;;;;;;12.07;6.82;;;10.60;99.90;;;;;;7596035;19;20449;-73
2023/06/04 04:24:26;;;;;;;10.70;6.80;;;10.60;99.90;;;;;;7590711;19;20018;-73
2023/06/04 04:27:04;;;;;;;11.68;7.05;;;10.70;99.90;;;;;;7594804;19;20131;-74
2023/06/04 04:29:38;;;;;;;12.32;6.60;;;10.80;99.90;;;;;;7595286;19;20015;-74
2023/06/04 04:32:11;;;;;;;10.23;6.53;;;10.80;99.90;;;;;;7594585;19;20015;-73
2023/06/04 04:34:54;;;;;;;10.73;7.38;;;10.90;99.90;;;;;;7588986;19;20828;-73
2023/06/04 04:37:38;;;;;;;11.25;6.60;;;10.90;99.90;;;;;;7595070;19;20037;-73
2023/06/04 04:40:13;;;;;;;9.45;6.30;;;10.90;99.90;;;;;;7595856;19;20019;-74
2023/06/04 04:42:49;;;;;;;11.27;7.05;;;11.00;99.90;;;;;;7591545;19;21495;-74
2023/06/04 04:45:23;;;;;;;;;;;11.20;99.90;;;;;;7597477;19;20048;-73
2023/06/04 04:47:58;;;;;;;11.75;6.38;;;11.20;99.90;;;;;;7590035;19;19972;-73
2023/06/04 04:50:31;;;;;;;9.65;6.72;;;11.30;99.90;;;;;;7593233;19;20026;-73
2023/06/04 04:53:04;;;;;;;9.32;6.70;;;11.40;99.90;;;;;;7589842;19;20025;-74
2023/06/04 04:55:37;;;;;;;11.15;6.72;;;11.50;99.90;;;;;;7593257;19;20074;-74
2023/06/04 04:58:10;;;;;;;10.25;6.85;;;11.60;99.90;;;;;;7593046;19;20014;-75
2023/06/04 05:00:42;;;;;;;12.48;6.93;;;11.70;99.90;;;;;;7595083;19;20530;-74
2023/06/04 05:03:15;;;;;;;11.70;7.35;;;11.80;99.90;;;;;;7590189;19;21072;-74
2023/06/04 05:05:48;;;;;;;11.20;7.22;;;;;;;;;;7590158;19;20048;-74
2023/06/04 05:08:20;;;;;;;13.60;7.18;;;;;;;;;;7594188;19;20109;-75
2023/06/04 05:10:53;;;;;;;11.02;7.28;;;;;;;;;;7592917;19;20017;-74
2023/06/04 05:13:26;;;;;;;9.53;6.37;;;;;;;;;;7595953;19;20018;-74
2023/06/04 05:16:06;;;;;;;12.35;6.00;;;;;;;;;;7590583;19;20015;-74
2023/06/04 05:18:44;;;;;;;8.52;5.95;;;;;;;;;;7595539;19;20017;-74
2023/06/04 05:21:22;;;;;;;11.77;6.38;;;;;;;;;;7594941;19;20056;-74
2023/06/04 05:24:07;;;;;;;9.30;5.75;;;;;;;;;;7589880;19;20621;-74
2023/06/04 05:26:44;;;;;;;15.63;6.53;;;;;;;;;;7592905;19;20103;-73
2023/06/04 05:29:23;;;;;;;12.05;6.13;;;;;;;;;;7593749;19;20512;-74
2023/06/04 05:31:56;;;;;;;13.80;6.18;;;;;;;;;;7589708;19;20336;-74
2023/06/04 05:34:29;;;;;;;12.70;6.15;;;;;;;;;;7591114;19;20073;-74
2023/06/04 05:37:04;;;;;;;12.85;6.22;;;;;;;;;;7590545;19;20014;-74
2023/06/04 05:39:37;;;;;;;9.00;5.57;;;;;;;;;;7592298;19;20022;-74
2023/06/04 05:42:17;;;;;;;9.80;5.20;;;;;;;;;;7593880;19;20138;-75
2023/06/04 05:44:51;;;;;;;;;;;;;;;;;;7593188;19;20014;-74
2023/06/04 05:47:25;;;;;;;11.32;5.35;;;;;;;;;;7592849;19;19934;-74
2023/06/04 05:49:58;;;;;;;13.25;5.65;;;;;;;;;;7592905;19;20022;-75
2023/06/04 05:52:33;;;;;;;9.40;5.70;;;;;;;;;;7585395;19;20548;-75
2023/06/04 05:55:10;;;;;;;16.55;5.55;;;;;;;;;;7591484;19;20283;-74
2023/06/04 05:57:44;;;;;;;9.88;5.35;;;;;;;;;;7597945;19;20022;-74
2023/06/04 06:00:17;;;;;;;11.63;5.43;;;;;;;;;;7594947;19;20022;-74
2023/06/04 06:02:53;;;;;;;14.05;5.05;;;;;;;;;;7589239;19;20010;-74
2023/06/04 06:05:37;;;;;;;9.38;5.00;;;;;;;;;;7589935;19;20031;-75
2023/06/04 06:08:09;;;;;;;9.30;5.55;;;;;;;;;;7592749;19;20015;-73
2023/06/04 06:10:42;;;;;;;10.90;5.03;;;;;;;;;;7595601;19;20007;-74
2023/06/04 06:13:15;;;;;;;11.10;5.00;;;;;;;;;;7590010;19;21079;-74
2023/06/04 06:15:48;;;;;;;10.55;5.28;;;;;;;;;;7592628;19;21034;-74
2023/06/04 06:18:21;;;;;;;9.52;4.60;;;;;;;;;;7590307;19;20022;-74
2023/06/04 06:20:54;;;;;;;11.38;5.72;;;;;;;;;;7592775;19;20030;-74
2023/06/04 06:23:28;;;;;;;9.90;4.70;;;;;;;;;;7593280;19;20042;-74
2023/06/04 06:26:04;;;;;;;14.38;4.95;;;;;;;;;;7592456;19;20018;-74
2023/06/04 06:28:39;;;;;;;6.88;4.50;;;;;;;;;;7591452;19;20018;-74
2023/06/04 06:31:12;;;;;;;;;;;;;;;;;;7592572;19;20015;-74
2023/06/04 06:33:45;;;;;;;12.82;4.80;;;;;;;;;;7589942;19;19930;-74
2023/06/04 06:36:18;;;;;;;7.50;5.10;;;;;;;;;;7595152;19;20700;-74
2023/06/04 06:38:52;;;;;;;7.80;4.97;;;;;;;;;;7592695;19;20286;-74
2023/06/04 06:41:26;;;;;;;8.57;4.50;;;;;;;;;;7596371;19;20014;-74
2023/06/04 06:43:58;;;;;;;;;;;;;;;;;;7589163;19;20102;-74
2023/06/04 06:46:31;;;;;;;10.52;4.60;;;;;;;;;;7596173;19;19922;-74
2023/06/04 06:49:04;;;;;;;6.15;3.70;;;;;;;;;;7591105;19;20611;-75
2023/06/04 06:51:37;;;;;;;9.10;4.95;;;;;;;;;;7592149;19;20014;-75
2023/06/04 06:54:10;;;;;;;7.78;4.70;;;;;;;;;;7587014;19;20108;-74
2023/06/04 06:56:43;;;;;;;9.93;4.75;;;;;;;;;;7594065;19;20026;-74
2023/06/04 06:59:15;;;;;;;7.90;4.93;;;;;;;;;;7591643;19;20022;-74
2023/06/04 07:01:48;;;;;;;11.48;4.40;;;;;;;;;;7596553;19;20021;-74
2023/06/04 07:04:21;;;;;;;8.65;4.72;;;;;;;;;;7591669;19;20022;-74
2023/06/04 07:06:53;;;;;;;8.05;4.55;;;;;;;;;;7596817;19;20015;-75
2023/06/04 07:09:26;;;;;;;9.05;5.13;;;;;;;;;;7593928;19;20074;-75
2023/06/04 07:11:59;;;;;;;9.77;4.93;;;;;;;;;;7589449;19;20010;-74
2023/06/04 07:14:31;;;;;;;12.98;5.13;;;;;;;;;;7590809;19;20318;-75
2023/06/04 07:17:04;;;;;;;10.00;4.88;;;;;;;;;;7588003;19;20014;-75
2023/06/04 07:19:37;;;;;;;9.00;4.83;;;;;;;;;;7594552;19;20023;-75
2023/06/04 07:22:10;;;;;;;8.27;5.07;;;;;;;;;;7592993;19;22199;-75
2023/06/04 07:24:43;;;;;;;7.45;4.85;;;;;;;;;;7595163;19;20369;-74
2023/06/04 07:27:16;;;;;;;8.63;4.68;;;;;;;;;;7592619;19;20025;-75
2023/06/04 07:29:48;;;;;;;15.73;4.75;;;;;;;;;;7598926;19;20786;-75
2023/06/04 07:32:21;;;;;;;7.47;5.10;;;;;;;;;;7597970;19;20006;-76
2023/06/04 07:34:54;;;;;;;7.83;4.77;;;;;;;;;;7599707;19;20026;-74
2023/06/04 07:37:26;;;;;;;9.35;5.63;;;;;;;;;;7598520;19;20010;-74
2023/06/04 07:39:59;;;;;;;7.65;4.78;;;;;;;;;;7599853;19;20018;-74
2023/06/04 07:42:32;;;;;;;11.57;5.10;;;;;;;;;;7598633;19;20026;-74
2023/06/04 07:45:05;;;;;;;12.37;4.50;;;;;;;;;;7594660;19;20018;-75
2023/06/04 07:47:38;;;;;;;7.53;4.37;;;;;;;;;;7596460;19;20026;-75
2023/06/04 07:50:11;;;;;;;11.77;4.88;;;;;;;;;;7596566;19;20016;-75
2023/06/04 07:52:43;;;;;;;7.10;4.75;;;;;;;;;;7595169;19;20010;-75
2023/06/04 07:55:16;;;;;;;7.20;4.97;;;;;;;;;;7597139;19;20015;-75
2023/06/04 07:57:50;;;;;;;5.78;4.25;;;;;;;;;;7600004;19;20014;-75
2023/06/04 08:00:22;;;;;;;8.50;4.43;;;;;;;;;;7595854;19;20010;-74
2023/06/04 08:02:56;;;;;;;6.15;4.47;;;;;;;;;;7597054;19;20015;-74
2023/06/04 08:05:30;;;;;;;9.52;4.50;;;;;;;;;;7602503;19;20011;-75
2023/06/04 08:08:03;;;;;;;10.13;4.30;;;;;;;;;;7599908;19;20025;-74
2023/06/04 08:10:36;;;;;;;7.57;4.00;;;;;;;;;;7597832;19;20037;-76
2023/06/04 08:13:09;;;;;;;5.00;4.13;;;;;;;;;;7596795;19;20011;-75
2023/06/04 08:15:42;;;;;;;7.70;4.25;;;;;;;;;;7597226;19;21782;-75
2023/06/04 08:18:38;;;;;;;8.43;4.47;;;;;;;;;;7596416;19;20022;-74
2023/06/04 08:21:25;;;;;;;12.25;4.78;;;;;;;;;;7599737;19;20085;-75
2023/06/04 08:24:08;;;;;;;7.53;3.85;;;;;;;;;;7596908;19;20878;-75
2023/06/04 08:27:01;;;;;;;;;;;;;;;;;;7597007;19;20138;-75
2023/06/04 08:29:40;;;;;;;10.00;4.13;;;;;;;;;;7598888;19;19965;-75
2023/06/04 08:32:30;;;;;;;8.55;4.15;;;;;;;;;;7595156;19;20454;-74
2023/06/04 08:35:22;;;;;;;11.02;4.13;;;;;;;;;;7594076;19;20014;-75
2023/06/04 08:37:55;;;;;;;9.93;4.03;;;;;;;;;;7590344;19;20369;-75
2023/06/04 08:40:28;;;;;;;5.80;3.95;;;;;;;;;;7593375;19;20109;-75
2023/06/04 08:43:01;;;;;;;8.15;3.97;;;;;;;;;;7597059;19;20056;-75
2023/06/04 08:45:39;;;;;;;12.07;4.10;;;12.00;99.90;;;;;;7604644;19;20043;-73
2023/06/04 08:48:12;;;;;;;6.90;3.85;;;20.90;76.20;;;;;;7590343;19;20299;-74
2023/06/04 08:50:47;;;;;;;7.97;4.10;;;20.80;74.60;;;;;;7604503;19;21418;-74
2023/06/04 08:53:20;;;;;;;4.85;4.00;;;20.80;70.80;;;;;;7599296;19;20018;-75
2023/06/04 08:55:53;;;;;;;8.48;3.83;;;20.80;72.90;;;;;;7598021;19;20903;-74
2023/06/04 08:58:25;;;;;;;8.63;4.20;;;20.80;73.30;;;;;;7597227;19;20048;-75
2023/06/04 09:01:00;;;;;;;11.60;3.63;;;20.70;74.10;;;;;;7595857;19;20279;-74
2023/06/04 09:03:32;;;;;;;8.45;4.25;;;20.90;73.10;;;;;;7602961;19;20658;-75
2023/06/04 09:06:05;;;;;;;7.20;4.15;;;20.90;73.30;;;;;;7596090;19;20105;-75
2023/06/04 09:08:42;;;;;;;11.70;4.27;;;21.00;71.20;;;;;;7596278;19;20669;-75
2023/06/04 09:11:23;;;;;;;6.30;4.45;;;21.00;71.00;;;;;;7597864;19;21273;-75
2023/06/04 09:14:01;;;;;;;7.30;4.05;;;21.00;71.30;;;;;;7593146;19;20456;-74
2023/06/04 09:16:45;;;;;;;6.68;3.72;;;21.10;70.20;;;;;;7596850;19;20015;-75
2023/06/04 09:19:19;;;;;;;8.40;4.13;;;21.10;69.70;;;;;;7594279;19;20022;-75
2023/06/04 09:22:00;;;;;;;8.75;4.00;;;21.20;71.20;;;;;;7599738;19;20019;-76
2023/06/04 09:24:46;;;;;;;12.48;4.93;;;21.20;69.30;;;;;;7595290;19;20701;-75
2023/06/04 09:27:22;;;;;;;9.60;4.13;;;21.20;68.10;;;;;;7595262;19;20030;-75
2023/06/04 09:29:59;;;;;;;8.32;4.03;;;21.30;66.40;;;;;;7599951;19;20014;-74
2023/06/04 09:32:31;;;;;;;7.00;4.05;;;21.30;65.10;;;;;;7593573;19;20015;-75
2023/06/04 09:35:13;;;;;;;9.30;4.10;;;21.40;64.20;;;;;;7588918;19;20014;-73
2023/06/04 09:37:56;;;;;;;6.82;3.65;;;21.40;63.90;;;;;;7597619;19;20024;-73
2023/06/04 09:40:37;;;;;;;5.75;3.78;;;21.30;63.40;;;;;;7597152;19;20645;-75
2023/06/04 09:43:10;;;;;;;9.98;4.70;;;21.30;62.20;;;;;;7598820;19;20484;-74
2023/06/04 09:45:43;;;;;;;9.63;4.18;;;21.20;62.80;;;;;;7596876;19;20007;-75
2023/06/04 09:48:21;;;;;;;10.50;4.30;;;21.10;63.90;;;;;;7594993;19;20449;-74
2023/06/04 09:50:54;;;;;;;8.60;4.13;;;21.20;64.70;;;;;;7596650;19;20049;-74
2023/06/04 09:53:28;;;;;;;6.93;4.20;;;21.40;64.20;;;;;;7590669;19;20513;-74
2023/06/04 09:56:04;;;;;;;10.43;4.05;;;21.40;63.40;;;;;;7596743;19;20010;-75
2023/06/04 09:58:37;;;;;;;;;;;21.60;64.30;;;;;;7593883;19;20083;-74
2023/06/04 10:01:11;;;;;;;10.60;4.32;;;21.70;62.80;;;;;;7597068;19;19914;-73
2023/06/04 10:03:50;;;;;;;7.90;3.95;;;21.70;62.30;;;;;;7591995;19;20071;-74
2023/06/04 10:06:24;;;;;;;9.82;4.63;;;;;;;;;;7593697;19;20021;-74
2023/06/04 10:08:58;;;;;;;9.52;4.47;;;;;;;;;;7596605;19;20014;-74
2023/06/04 10:11:33;;;;;;;5.93;4.40;;;;;;;;;;7591247;19;20022;-74
2023/06/04 10:14:20;;;;;;;6.38;3.65;;;;;;;;;;7592119;19;20048;-74
2023/06/04 10:16:52;;;;;;;7.30;4.80;;;;;;;;;;7592468;19;20026;-74
2023/06/04 10:19:26;;;;;;;6.07;4.72;;;;;;;;;;7591561;19;20828;-74
2023/06/04 10:21:58;;;;;;;6.15;4.43;;;;;;;;;;7594389;19;20053;-74
2023/06/04 10:24:31;;;;;;;10.73;4.97;;;;;;;;;;7591887;19;20011;-74
2023/06/04 10:27:10;;;;;;;9.93;4.65;;;;;;;;;;7596774;19;20103;-75
2023/06/04 10:29:43;;;;;;;8.20;4.88;;;21.80;62.80;;;;;;7596720;19;21626;-74
2023/06/04 10:32:16;;;;;;;7.47;4.72;;;;;;;;;;7591913;19;20022;-75
2023/06/04 10:34:48;;;;;;;7.95;5.00;;;;;;;;;;7597625;19;20044;-76
2023/06/04 10:37:22;;;;;;;8.90;5.05;;;;;;;;;;7591039;19;20599;-75
2023/06/04 10:39:58;;;;;;;6.78;4.63;;;;;;;;;;7592652;19;20014;-74
2023/06/04 10:42:38;;;;;;;8.48;4.47;;;;;;;;;;7593524;19;20646;-77
2023/06/04 10:45:11;;;;;;;8.73;5.22;;;;;;;;;;7591262;19;20073;-75
2023/06/04 10:47:44;;;;;;;11.15;4.32;;;;;;;;;;7599492;19;20036;-75
2023/06/04 10:50:18;;;;;;;11.40;5.00;;;;;;;;;;7589302;19;20026;-74
2023/06/04 10:52:57;;;;;;;10.00;4.10;;;;;;;;;;7594121;19;20026;-75
2023/06/04 10:55:30;;;;;;;6.68;3.70;;;;;;;;;;7601670;19;20617;-75
2023/06/04 10:58:03;;;;;;;;;;;;;;;;;;7599273;19;20623;-75
2023/06/04 11:00:40;;;;;;;9.82;4.75;;;;;;;;;;7595871;19;19926;-76
2023/06/04 11:03:13;;;;;;;6.63;4.53;;;;;;;;;;7595092;19;20018;-76
2023/06/04 11:05:46;;;;;;;;;;;;;;;;;;7603942;19;20102;-74
2023/06/04 11:08:29;;;;;;;5.68;4.13;;;23.20;57.80;;;;;;7600413;19;19937;-75
2023/06/04 11:11:10;;;;;;;;;;;25.50;51.60;;;;;;7602437;19;20015;-74
2023/06/04 11:13:43;;;;;;;9.15;4.15;;;25.40;51.10;;;;;;7598196;19;19915;-75
2023/06/04 11:16:20;;;;;;;9.40;5.28;;;25.40;51.70;;;;;;7597079;19;20018;-76
2023/06/04 11:18:57;;;;;;;9.25;4.88;;;25.50;50.30;;;;;;7602320;19;20030;-74
2023/06/04 11:21:30;;;;;;;6.78;3.97;;;25.70;51.30;;;;;;7597785;19;20015;-74
2023/06/04 11:24:02;;;;;;;;;;;25.80;51.90;;;;;;7599396;19;20033;-74
2023/06/04 11:26:36;;;;;;;7.13;4.50;;;25.90;50.10;;;;;;7597753;19;20513;-75
2023/06/04 11:29:16;;;;;;;5.80;3.80;;;25.70;51.00;;;;;;7596164;19;20086;-74
2023/06/04 11:31:48;;;;;;;;;;;25.70;50.30;;;;;;7602235;19;20486;-76
2023/06/04 11:34:27;;;;;;;10.38;4.63;;;25.50;48.50;;;;;;7595235;19;19925;-75
2023/06/04 11:37:10;;;;;;;26.35;15.07;;;25.70;50.80;;;;;;7602352;19;20225;-75
2023/06/04 11:39:44;;;;;;;11.32;7.72;;;26.00;52.20;;;;;;7599861;19;21615;-75
2023/06/04 11:42:17;;;;;;;6.75;4.40;;;26.10;50.00;;;;;;7598776;19;20034;-74
2023/06/04 11:44:54;;;;;;;8.18;5.05;;;26.10;50.40;;;;;;7598582;19;20633;-75
2023/06/04 11:47:27;;;;;;;6.65;4.15;;;25.80;49.00;;;;;;7597529;19;20113;-75
2023/06/04 11:49:59;;;;;;;7.33;4.40;;;25.70;49.70;;;;;;7600466;19;20021;-75
2023/06/04 11:52:32;;;;;;;9.75;4.60;;;26.00;50.50;;;;;;7593698;19;20015;-73
2023/06/04 11:55:09;;;;;;;8.77;4.95;;;26.20;49.50;;;;;;7594546;19;20401;-75
2023/06/04 11:57:41;;;;;;;5.80;4.43;;;26.30;48.00;;;;;;7598773;19;20014;-74
2023/06/04 12:00:15;;;;;;;7.97;4.68;;;26.10;48.00;;;;;;7598432;19;20014;-75
2023/06/04 12:02:55;;;;;;;8.80;5.13;;;26.30;48.90;;;;;;7596772;19;20479;-75
2023/06/04 12:05:31;;;;;;;6.20;4.82;;;26.30;48.70;;;;;;7597269;19;20022;-75
2023/06/04 12:08:09;;;;;;;8.95;4.75;;;26.40;49.70;;;;;;7596489;19;20018;-74
2023/06/04 12:10:43;;;;;;;9.48;4.80;;;26.40;48.30;;;;;;7596454;19;20910;-75
2023/06/04 12:13:15;;;;;;;11.52;4.38;;;26.50;48.00;;;;;;7596928;19;20641;-75
2023/06/04 12:15:54;;;;;;;8.80;4.53;;;26.60;48.90;;;;;;7595167;19;21083;-74
2023/06/04 12:18:27;;;;;;;6.47;3.80;;;26.60;47.80;;;;;;7595668;19;20018;-74
2023/06/04 12:20:59;;;;;;;6.55;4.53;;;26.80;49.10;;;;;;7605506;19;20018;-74
2023/06/04 12:23:31;;;;;;;7.57;4.32;;;26.80;47.70;;;;;;7595177;19;20407;-74
2023/06/04 12:26:04;;;;;;;8.52;4.30;;;27.00;47.40;;;;;;7598678;19;20014;-74
2023/06/04 12:28:36;;;;;;;7.53;4.37;;;27.10;47.40;;;;;;7600266;19;20531;-75
2023/06/04 12:31:16;;;;;;;8.75;4.93;;;27.20;48.60;;;;;;7596959;19;20279;-75
2023/06/04 12:33:49;;;;;;;7.05;4.25;;;27.20;47.70;;;;;;7595042;19;20073;-75
2023/06/04 12:36:21;;;;;;;6.28;4.45;;;26.90;48.80;;;;;;7596342;19;20011;-76
2023/06/04 12:38:53;;;;;;;5.32;3.92;;;27.10;49.70;;;;;;7593689;19;20022;-76
2023/06/04 12:41:27;;;;;;;8.63;4.40;;;27.20;50.50;;;;;;7596852;19;20049;-75
2023/06/04 12:44:00;;;;;;;8.35;4.63;;;27.30;49.30;;;;;;7595006;19;20082;-75
2023/06/04 12:46:32;;;;;;;9.98;4.47;;;27.10;48.10;;;;;;7596539;19;20045;-76
2023/06/04 12:49:05;;;;;;;6.75;4.20;;;27.20;48.50;;;;;;7584909;19;20029;-75
2023/06/04 12:51:38;;;;;;;6.57;4.50;;;27.10;48.50;;;;;;7596734;19;20022;-76
2023/06/04 12:54:10;;;;;;;9.48;4.43;;;26.80;49.10;;;;;;7588997;19;20079;-75
2023/06/04 12:56:44;;;;;;;6.97;4.25;;;27.00;48.30;;;;;;7598803;19;21589;-74
2023/06/04 12:59:16;;;;;;;5.85;4.30;;;26.80;48.70;;;;;;7592938;19;20025;-74
2023/06/04 13:01:50;;;;;;;7.40;4.32;;;26.70;49.00;;;;;;7597130;19;20029;-75
2023/06/04 13:04:26;;;;;;;7.45;4.20;;;26.80;51.90;;;;;;7592991;19;20049;-75
2023/06/04 13:07:01;;;;;;;8.88;4.20;;;26.70;49.00;;;;;;7595517;19;20018;-74
2023/06/04 13:09:34;;;;;;;7.40;4.50;;;26.70;50.10;;;;;;7590887;19;20018;-75
2023/06/04 13:12:09;;;;;;;8.32;4.63;;;26.70;49.10;;;;;;7598299;19;20057;-75
2023/06/04 13:14:42;;;;;;;10.93;4.55;;;26.90;49.50;;;;;;7589520;19;20023;-74
2023/06/04 13:17:14;;;;;;;9.95;4.65;;;26.90;48.40;;;;;;7595266;19;20018;-75
2023/06/04 13:19:54;;;;;;;8.80;4.63;;;26.60;48.20;;;;;;7598396;19;20663;-74
2023/06/04 13:22:26;;;;;;;9.23;4.28;;;26.60;48.20;;;;;;7592392;19;20970;-74
2023/06/04 13:24:58;;;;;;;11.65;4.68;;;27.00;49.30;;;;;;7596755;19;20021;-75
2023/06/04 13:27:31;;;;;;;7.80;5.20;;;27.50;47.60;;;;;;7593019;19;20034;-74
2023/06/04 13:30:03;;;;;;;8.57;4.43;;;27.70;47.30;;;;;;7598492;19;20021;-74
2023/06/04 13:32:36;;;;;;;6.60;4.60;;;27.90;47.50;;;;;;7594019;19;20045;-74
2023/06/04 13:35:08;;;;;;;8.23;4.63;;;27.70;46.80;;;;;;7596659;19;20410;-75
2023/06/04 13:37:41;;;;;;;10.47;4.80;;;27.60;46.10;;;;;;7591198;19;20705;-75
2023/06/04 13:40:14;;;;;;;6.38;4.45;;;27.80;47.10;;;;;;7594532;19;20283;-75
2023/06/04 13:42:46;;;;;;;5.47;4.37;;;27.90;47.10;;;;;;7601534;19;20707;-76
2023/06/04 13:45:20;;;;;;;7.55;4.82;;;28.10;47.00;;;;;;7593911;19;20014;-76
2023/06/04 13:47:52;;;;;;;8.15;4.47;;;27.90;45.90;;;;;;7595531;19;20014;-74
2023/06/04 13:50:26;;;;;;;7.20;4.68;;;27.80;46.60;;;;;;7586683;19;20014;-74
2023/06/04 13:52:58;;;;;;;8.93;4.78;;;27.50;46.00;;;;;;7600203;19;20026;-75
2023/06/04 13:55:30;;;;;;;6.57;4.57;;;27.40;46.20;;;;;;7597159;19;20105;-74
2023/06/04 13:58:03;;;;;;;7.70;4.53;;;27.30;48.00;;;;;;7600092;19;20023;-75
2023/06/04 14:00:35;;;;;;;7.85;4.55;;;26.90;47.60;;;;;;7588885;19;20940;-75